sensor_id;sensor_type;location;lat;lon;timestamp;temperature;humidity
16140;DHT22;8175;49.326;12.690;2022-10-31T00:01:01;8.40;99.90
16140;DHT22;8175;49.326;12.690;2022-10-31T00:03:27;8.50;99.90
16140;DHT22;8175;49.326;12.690;2022-10-31T00:05:53;8.50;99.90
16140;DHT22;8175;49.326;12.690;2022-10-31T00:08:19;8.50;99.90
16140;DHT22;8175;49.326;12.690;2022-10-31T00:10:45;8.50;99.90
16140;DHT22;8175;49.326;12.690;2022-10-31T00:13:12;8.50;99.90
16140;DHT22;8175;49.326;12.690;2022-10-31T00:15:39;8.50;99.90
16140;DHT22;8175;49.326;12.690;2022-10-31T00:18:07;8.60;99.90
16140;DHT22;8175;49.326;12.690;2022-10-31T00:20:33;8.50;99.90
16140;DHT22;8175;49.326;12.690;2022-10-31T00:23:00;8.40;99.90
16140;DHT22;8175;49.326;12.690;2022-10-31T00:25:27;8.40;99.90
16140;DHT22;8175;49.326;12.690;2022-10-31T00:27:53;8.40;99.90
16140;DHT22;8175;49.326;12.690;2022-10-31T00:30:19;8.40;99.90
16140;DHT22;8175;49.326;12.690;2022-10-31T00:32:45;8.40;99.90
16140;DHT22;8175;49.326;12.690;2022-10-31T00:35:10;8.40;99.90
16140;DHT22;8175;49.326;12.690;2022-10-31T00:37:36;8.40;99.90
16140;DHT22;8175;49.326;12.690;2022-10-31T00:40:02;8.30;99.90
16140;DHT22;8175;49.326;12.690;2022-10-31T00:42:27;8.30;99.90
16140;DHT22;8175;49.326;12.690;2022-10-31T00:44:53;8.20;99.90
16140;DHT22;8175;49.326;12.690;2022-10-31T00:47:19;8.30;99.90
16140;DHT22;8175;49.326;12.690;2022-10-31T00:49:44;8.30;99.90
16140;DHT22;8175;49.326;12.690;2022-10-31T00:52:10;8.20;99.90
16140;DHT22;8175;49.326;12.690;2022-10-31T00:54:35;8.20;99.90
16140;DHT22;8175;49.326;12.690;2022-10-31T00:57:02;8.20;99.90
16140;DHT22;8175;49.326;12.690;2022-10-31T00:59:28;8.20;99.90
16140;DHT22;8175;49.326;12.690;2022-10-31T01:01:53;8.20;99.90
16140;DHT22;8175;49.326;12.690;2022-10-31T01:04:19;8.20;99.90
16140;DHT22;8175;49.326;12.690;2022-10-31T01:06:45;8.00;99.90
16140;DHT22;8175;49.326;12.690;2022-10-31T01:09:10;8.10;99.90
16140;DHT22;8175;49.326;12.690;2022-10-31T01:11:36;8.00;99.90
16140;DHT22;8175;49.326;12.690;2022-10-31T01:14:02;8.00;99.90
16140;DHT22;8175;49.326;12.690;2022-10-31T01:16:27;8.00;99.90
16140;DHT22;8175;49.326;12.690;2022-10-31T01:18:54;7.90;99.90
16140;DHT22;8175;49.326;12.690;2022-10-31T01:21:24;8.00;99.90
16140;DHT22;8175;49.326;12.690;2022-10-31T01:23:52;7.90;99.90
16140;DHT22;8175;49.326;12.690;2022-10-31T01:26:21;7.80;99.90
16140;DHT22;8175;49.326;12.690;2022-10-31T01:31:15;7.80;99.90
16140;DHT22;8175;49.326;12.690;2022-10-31T01:33:41;7.80;99.90
16140;DHT22;8175;49.326;12.690;2022-10-31T01:36:23;7.70;99.90
16140;DHT22;8175;49.326;12.690;2022-10-31T01:38:49;7.70;99.90
16140;DHT22;8175;49.326;12.690;2022-10-31T01:41:20;7.60;99.90
16140;DHT22;8175;49.326;12.690;2022-10-31T01:43:55;7.60;99.90
16140;DHT22;8175;49.326;12.690;2022-10-31T01:46:34;7.70;99.90
16140;DHT22;8175;49.326;12.690;2022-10-31T01:49:05;7.70;99.90
16140;DHT22;8175;49.326;12.690;2022-10-31T01:51:39;7.70;99.90
16140;DHT22;8175;49.326;12.690;2022-10-31T01:54:09;7.70;99.90
16140;DHT22;8175;49.326;12.690;2022-10-31T01:56:40;7.60;99.90
16140;DHT22;8175;49.326;12.690;2022-10-31T01:59:09;7.50;99.90
16140;DHT22;8175;49.326;12.690;2022-10-31T02:01:39;7.50;99.90
16140;DHT22;8175;49.326;12.690;2022-10-31T02:04:05;7.50;99.90
16140;DHT22;8175;49.326;12.690;2022-10-31T02:06:49;7.50;99.90
16140;DHT22;8175;49.326;12.690;2022-10-31T02:09:16;7.50;99.90
16140;DHT22;8175;49.326;12.690;2022-10-31T02:11:43;7.60;99.90
16140;DHT22;8175;49.326;12.690;2022-10-31T02:14:09;7.50;99.90
16140;DHT22;8175;49.326;12.690;2022-10-31T02:16:35;7.60;99.90
16140;DHT22;8175;49.326;12.690;2022-10-31T02:19:01;7.60;99.90
16140;DHT22;8175;49.326;12.690;2022-10-31T02:21:39;7.60;99.90
16140;DHT22;8175;49.326;12.690;2022-10-31T02:38:16;7.50;99.90
16140;DHT22;8175;49.326;12.690;2022-10-31T02:41:15;7.40;99.90
16140;DHT22;8175;49.326;12.690;2022-10-31T02:46:34;7.50;99.90
16140;DHT22;8175;49.326;12.690;2022-10-31T02:49:07;7.60;99.90
16140;DHT22;8175;49.326;12.690;2022-10-31T02:51:35;7.60;99.90
16140;DHT22;8175;49.326;12.690;2022-10-31T02:54:01;7.60;99.90
16140;DHT22;8175;49.326;12.690;2022-10-31T02:56:27;7.50;99.90
16140;DHT22;8175;49.326;12.690;2022-10-31T02:59:21;7.60;99.90
16140;DHT22;8175;49.326;12.690;2022-10-31T03:04:40;7.50;99.90
16140;DHT22;8175;49.326;12.690;2022-10-31T03:07:46;7.50;99.90
16140;DHT22;8175;49.326;12.690;2022-10-31T03:15:27;7.50;99.90
16140;DHT22;8175;49.326;12.690;2022-10-31T03:20:50;7.50;99.90
16140;DHT22;8175;49.326;12.690;2022-10-31T03:23:19;7.50;99.90
16140;DHT22;8175;49.326;12.690;2022-10-31T03:25:46;7.50;99.90
16140;DHT22;8175;49.326;12.690;2022-10-31T03:28:15;7.40;99.90
16140;DHT22;8175;49.326;12.690;2022-10-31T03:30:44;7.30;99.90
16140;DHT22;8175;49.326;12.690;2022-10-31T03:33:15;7.20;99.90
16140;DHT22;8175;49.326;12.690;2022-10-31T03:35:44;7.20;99.90
16140;DHT22;8175;49.326;12.690;2022-10-31T03:38:11;7.10;99.90
16140;DHT22;8175;49.326;12.690;2022-10-31T03:40:40;7.20;99.90
16140;DHT22;8175;49.326;12.690;2022-10-31T03:43:10;7.20;99.90
16140;DHT22;8175;49.326;12.690;2022-10-31T03:45:45;7.30;99.90
16140;DHT22;8175;49.326;12.690;2022-10-31T03:48:13;7.20;99.90
16140;DHT22;8175;49.326;12.690;2022-10-31T03:53:19;7.30;99.90
16140;DHT22;8175;49.326;12.690;2022-10-31T03:58:29;7.30;99.90
16140;DHT22;8175;49.326;12.690;2022-10-31T04:01:00;7.40;99.90
16140;DHT22;8175;49.326;12.690;2022-10-31T04:03:30;7.30;99.90
16140;DHT22;8175;49.326;12.690;2022-10-31T04:06:02;7.20;99.90
16140;DHT22;8175;49.326;12.690;2022-10-31T04:08:30;7.10;99.90
16140;DHT22;8175;49.326;12.690;2022-10-31T04:10:58;7.10;99.90
16140;DHT22;8175;49.326;12.690;2022-10-31T04:13:29;7.10;99.90
16140;DHT22;8175;49.326;12.690;2022-10-31T04:15:57;7.10;99.90
16140;DHT22;8175;49.326;12.690;2022-10-31T04:18:23;7.10;99.90
16140;DHT22;8175;49.326;12.690;2022-10-31T04:20:58;7.10;99.90
16140;DHT22;8175;49.326;12.690;2022-10-31T04:23:25;7.10;99.90
16140;DHT22;8175;49.326;12.690;2022-10-31T04:25:51;7.10;99.90
16140;DHT22;8175;49.326;12.690;2022-10-31T04:28:17;7.00;99.90
16140;DHT22;8175;49.326;12.690;2022-10-31T04:30:43;7.00;99.90
16140;DHT22;8175;49.326;12.690;2022-10-31T04:33:09;7.00;99.90
16140;DHT22;8175;49.326;12.690;2022-10-31T04:35:35;7.10;99.90
16140;DHT22;8175;49.326;12.690;2022-10-31T04:38:00;7.20;99.90
16140;DHT22;8175;49.326;12.690;2022-10-31T04:40:26;7.10;99.90
16140;DHT22;8175;49.326;12.690;2022-10-31T04:42:52;7.20;99.90
16140;DHT22;8175;49.326;12.690;2022-10-31T04:45:17;7.10;99.90
16140;DHT22;8175;49.326;12.690;2022-10-31T04:47:43;7.10;99.90
16140;DHT22;8175;49.326;12.690;2022-10-31T04:50:09;7.20;99.90
16140;DHT22;8175;49.326;12.690;2022-10-31T04:52:42;7.10;99.90
16140;DHT22;8175;49.326;12.690;2022-10-31T04:55:09;7.00;99.90
16140;DHT22;8175;49.326;12.690;2022-10-31T04:57:45;6.90;99.90
16140;DHT22;8175;49.326;12.690;2022-10-31T05:00:13;7.00;99.90
16140;DHT22;8175;49.326;12.690;2022-10-31T05:02:46;7.00;99.90
16140;DHT22;8175;49.326;12.690;2022-10-31T05:05:17;7.10;99.90
16140;DHT22;8175;49.326;12.690;2022-10-31T05:07:45;7.20;99.90
16140;DHT22;8175;49.326;12.690;2022-10-31T05:10:14;7.20;99.90
16140;DHT22;8175;49.326;12.690;2022-10-31T05:12:47;7.20;99.90
16140;DHT22;8175;49.326;12.690;2022-10-31T05:15:13;7.30;99.90
16140;DHT22;8175;49.326;12.690;2022-10-31T05:17:39;7.20;99.90
16140;DHT22;8175;49.326;12.690;2022-10-31T05:20:05;7.00;99.90
16140;DHT22;8175;49.326;12.690;2022-10-31T05:22:30;6.90;99.90
16140;DHT22;8175;49.326;12.690;2022-10-31T05:24:56;6.90;99.90
16140;DHT22;8175;49.326;12.690;2022-10-31T05:27:22;6.90;99.90
16140;DHT22;8175;49.326;12.690;2022-10-31T05:29:48;6.90;99.90
16140;DHT22;8175;49.326;12.690;2022-10-31T05:32:13;6.90;99.90
16140;DHT22;8175;49.326;12.690;2022-10-31T05:34:39;6.90;99.90
16140;DHT22;8175;49.326;12.690;2022-10-31T05:37:04;6.90;99.90
16140;DHT22;8175;49.326;12.690;2022-10-31T05:39:30;6.80;99.90
16140;DHT22;8175;49.326;12.690;2022-10-31T05:41:56;6.90;99.90
16140;DHT22;8175;49.326;12.690;2022-10-31T05:44:21;6.80;99.90
16140;DHT22;8175;49.326;12.690;2022-10-31T05:46:47;6.90;99.90
16140;DHT22;8175;49.326;12.690;2022-10-31T05:49:13;6.90;99.90
16140;DHT22;8175;49.326;12.690;2022-10-31T05:51:38;6.90;99.90
16140;DHT22;8175;49.326;12.690;2022-10-31T05:54:04;7.00;99.90
16140;DHT22;8175;49.326;12.690;2022-10-31T05:56:29;7.00;99.90
16140;DHT22;8175;49.326;12.690;2022-10-31T05:58:55;7.20;99.90
16140;DHT22;8175;49.326;12.690;2022-10-31T06:01:21;7.10;99.90
16140;DHT22;8175;49.326;12.690;2022-10-31T06:03:46;7.10;99.90
16140;DHT22;8175;49.326;12.690;2022-10-31T06:06:12;7.00;99.90
16140;DHT22;8175;49.326;12.690;2022-10-31T06:08:38;7.00;99.90
16140;DHT22;8175;49.326;12.690;2022-10-31T06:11:04;6.90;99.90
16140;DHT22;8175;49.326;12.690;2022-10-31T06:13:30;6.90;99.90
16140;DHT22;8175;49.326;12.690;2022-10-31T06:15:55;7.00;99.90
16140;DHT22;8175;49.326;12.690;2022-10-31T06:18:21;7.00;99.90
16140;DHT22;8175;49.326;12.690;2022-10-31T06:20:47;7.00;99.90
16140;DHT22;8175;49.326;12.690;2022-10-31T06:23:12;7.00;99.90
16140;DHT22;8175;49.326;12.690;2022-10-31T06:25:38;7.10;99.90
16140;DHT22;8175;49.326;12.690;2022-10-31T06:28:04;7.20;99.90
16140;DHT22;8175;49.326;12.690;2022-10-31T06:30:29;7.30;99.90
16140;DHT22;8175;49.326;12.690;2022-10-31T06:33:02;7.30;99.90
16140;DHT22;8175;49.326;12.690;2022-10-31T06:35:28;7.30;99.90
16140;DHT22;8175;49.326;12.690;2022-10-31T06:37:53;7.30;99.90
16140;DHT22;8175;49.326;12.690;2022-10-31T06:40:19;7.30;99.90
16140;DHT22;8175;49.326;12.690;2022-10-31T06:42:45;7.30;99.90
16140;DHT22;8175;49.326;12.690;2022-10-31T06:45:11;7.40;99.90
16140;DHT22;8175;49.326;12.690;2022-10-31T06:47:37;7.50;99.90
16140;DHT22;8175;49.326;12.690;2022-10-31T06:50:03;7.50;99.90
16140;DHT22;8175;49.326;12.690;2022-10-31T06:52:29;7.60;99.90
16140;DHT22;8175;49.326;12.690;2022-10-31T06:54:55;7.70;99.90
16140;DHT22;8175;49.326;12.690;2022-10-31T06:57:20;7.70;99.90
16140;DHT22;8175;49.326;12.690;2022-10-31T06:59:46;7.70;99.90
16140;DHT22;8175;49.326;12.690;2022-10-31T07:02:12;7.70;99.90
16140;DHT22;8175;49.326;12.690;2022-10-31T07:04:38;7.70;99.90
16140;DHT22;8175;49.326;12.690;2022-10-31T07:07:03;7.70;99.90
16140;DHT22;8175;49.326;12.690;2022-10-31T07:09:29;7.70;99.90
16140;DHT22;8175;49.326;12.690;2022-10-31T07:11:55;7.80;99.90
16140;DHT22;8175;49.326;12.690;2022-10-31T07:14:20;7.90;99.90
16140;DHT22;8175;49.326;12.690;2022-10-31T07:16:50;7.90;99.90
16140;DHT22;8175;49.326;12.690;2022-10-31T07:19:16;8.00;99.90
16140;DHT22;8175;49.326;12.690;2022-10-31T07:21:42;8.20;99.90
16140;DHT22;8175;49.326;12.690;2022-10-31T07:24:07;8.30;99.90
16140;DHT22;8175;49.326;12.690;2022-10-31T07:26:33;8.40;99.90
16140;DHT22;8175;49.326;12.690;2022-10-31T07:28:59;8.60;99.90
16140;DHT22;8175;49.326;12.690;2022-10-31T07:31:25;9.00;99.90
16140;DHT22;8175;49.326;12.690;2022-10-31T07:33:50;9.40;99.90
16140;DHT22;8175;49.326;12.690;2022-10-31T07:36:16;9.70;99.90
16140;DHT22;8175;49.326;12.690;2022-10-31T07:38:42;9.80;99.90
16140;DHT22;8175;49.326;12.690;2022-10-31T07:41:07;10.00;99.90
16140;DHT22;8175;49.326;12.690;2022-10-31T07:43:34;10.20;99.90
16140;DHT22;8175;49.326;12.690;2022-10-31T07:45:59;10.40;99.90
16140;DHT22;8175;49.326;12.690;2022-10-31T07:48:25;10.70;99.90
16140;DHT22;8175;49.326;12.690;2022-10-31T07:50:51;11.10;99.90
16140;DHT22;8175;49.326;12.690;2022-10-31T07:53:16;11.50;99.90
16140;DHT22;8175;49.326;12.690;2022-10-31T07:55:42;11.90;99.90
16140;DHT22;8175;49.326;12.690;2022-10-31T07:58:13;12.20;99.90
16140;DHT22;8175;49.326;12.690;2022-10-31T08:00:41;11.90;99.90
16140;DHT22;8175;49.326;12.690;2022-10-31T08:03:09;11.70;99.90
16140;DHT22;8175;49.326;12.690;2022-10-31T08:05:36;11.60;99.90
16140;DHT22;8175;49.326;12.690;2022-10-31T08:08:03;11.80;99.90
16140;DHT22;8175;49.326;12.690;2022-10-31T08:10:30;11.90;99.90
16140;DHT22;8175;49.326;12.690;2022-10-31T08:12:57;11.90;99.90
16140;DHT22;8175;49.326;12.690;2022-10-31T08:15:24;12.10;99.90
16140;DHT22;8175;49.326;12.690;2022-10-31T08:17:49;12.10;99.90
16140;DHT22;8175;49.326;12.690;2022-10-31T08:20:15;12.20;99.90
16140;DHT22;8175;49.326;12.690;2022-10-31T08:22:41;12.40;99.90
16140;DHT22;8175;49.326;12.690;2022-10-31T08:25:07;12.50;99.90
16140;DHT22;8175;49.326;12.690;2022-10-31T08:27:33;12.50;99.90
16140;DHT22;8175;49.326;12.690;2022-10-31T08:29:58;12.50;99.90
16140;DHT22;8175;49.326;12.690;2022-10-31T08:32:24;12.60;99.90
16140;DHT22;8175;49.326;12.690;2022-10-31T08:34:50;12.80;99.90
16140;DHT22;8175;49.326;12.690;2022-10-31T08:37:15;13.00;99.90
16140;DHT22;8175;49.326;12.690;2022-10-31T08:39:48;13.30;99.90
16140;DHT22;8175;49.326;12.690;2022-10-31T08:42:14;13.50;99.90
16140;DHT22;8175;49.326;12.690;2022-10-31T08:44:39;13.80;99.90
16140;DHT22;8175;49.326;12.690;2022-10-31T08:47:05;14.20;99.90
16140;DHT22;8175;49.326;12.690;2022-10-31T08:49:31;14.50;99.90
16140;DHT22;8175;49.326;12.690;2022-10-31T08:51:56;14.90;99.90
16140;DHT22;8175;49.326;12.690;2022-10-31T08:54:22;15.40;99.90
16140;DHT22;8175;49.326;12.690;2022-10-31T08:56:48;16.00;99.90
16140;DHT22;8175;49.326;12.690;2022-10-31T08:59:13;16.50;99.90
16140;DHT22;8175;49.326;12.690;2022-10-31T09:01:39;16.90;99.90
16140;DHT22;8175;49.326;12.690;2022-10-31T09:04:04;17.20;99.90
16140;DHT22;8175;49.326;12.690;2022-10-31T09:06:30;17.10;99.90
16140;DHT22;8175;49.326;12.690;2022-10-31T09:08:56;17.50;99.90
16140;DHT22;8175;49.326;12.690;2022-10-31T09:11:21;17.80;99.90
16140;DHT22;8175;49.326;12.690;2022-10-31T09:13:47;18.70;99.90
16140;DHT22;8175;49.326;12.690;2022-10-31T09:16:12;20.30;99.90
16140;DHT22;8175;49.326;12.690;2022-10-31T09:18:38;22.10;99.90
16140;DHT22;8175;49.326;12.690;2022-10-31T09:21:04;23.60;98.90
16140;DHT22;8175;49.326;12.690;2022-10-31T09:23:30;24.80;95.40
16140;DHT22;8175;49.326;12.690;2022-10-31T09:25:55;25.80;90.20
16140;DHT22;8175;49.326;12.690;2022-10-31T09:28:24;26.30;82.10
16140;DHT22;8175;49.326;12.690;2022-10-31T09:30:51;26.90;73.30
16140;DHT22;8175;49.326;12.690;2022-10-31T09:33:17;26.10;76.10
16140;DHT22;8175;49.326;12.690;2022-10-31T09:35:43;26.20;73.20
16140;DHT22;8175;49.326;12.690;2022-10-31T09:38:11;26.50;72.20
16140;DHT22;8175;49.326;12.690;2022-10-31T09:52:17;28.70;70.00
16140;DHT22;8175;49.326;12.690;2022-10-31T09:57:35;29.80;66.70
16140;DHT22;8175;49.326;12.690;2022-10-31T10:00:04;30.10;64.60
16140;DHT22;8175;49.326;12.690;2022-10-31T10:02:37;30.00;65.00
16140;DHT22;8175;49.326;12.690;2022-10-31T10:05:11;29.20;68.90
16140;DHT22;8175;49.326;12.690;2022-10-31T10:08:07;29.60;67.20
16140;DHT22;8175;49.326;12.690;2022-10-31T10:16:14;29.40;66.50
16140;DHT22;8175;49.326;12.690;2022-10-31T10:22:12;29.10;69.10
16140;DHT22;8175;49.326;12.690;2022-10-31T10:27:29;30.20;64.00
16140;DHT22;8175;49.326;12.690;2022-10-31T10:30:21;30.10;64.00
16140;DHT22;8175;49.326;12.690;2022-10-31T10:32:53;30.40;63.00
16140;DHT22;8175;49.326;12.690;2022-10-31T10:37:52;30.60;61.10
16140;DHT22;8175;49.326;12.690;2022-10-31T10:40:21;30.50;65.70
16140;DHT22;8175;49.326;12.690;2022-10-31T10:43:21;30.80;60.50
16140;DHT22;8175;49.326;12.690;2022-10-31T10:46:21;30.50;63.50
16140;DHT22;8175;49.326;12.690;2022-10-31T10:54:39;30.40;61.30
16140;DHT22;8175;49.326;12.690;2022-10-31T10:57:32;30.70;60.50
16140;DHT22;8175;49.326;12.690;2022-10-31T11:02:43;31.30;57.70
16140;DHT22;8175;49.326;12.690;2022-10-31T11:05:19;31.10;58.70
16140;DHT22;8175;49.326;12.690;2022-10-31T11:07:47;31.50;57.90
16140;DHT22;8175;49.326;12.690;2022-10-31T11:10:14;31.60;57.50
16140;DHT22;8175;49.326;12.690;2022-10-31T11:12:42;31.60;56.80
16140;DHT22;8175;49.326;12.690;2022-10-31T11:15:20;31.40;59.50
16140;DHT22;8175;49.326;12.690;2022-10-31T11:17:49;31.30;57.20
16140;DHT22;8175;49.326;12.690;2022-10-31T11:22:46;31.30;58.80
16140;DHT22;8175;49.326;12.690;2022-10-31T11:25:25;31.40;58.00
16140;DHT22;8175;49.326;12.690;2022-10-31T11:30:26;31.50;58.40
16140;DHT22;8175;49.326;12.690;2022-10-31T11:32:52;31.30;56.90
16140;DHT22;8175;49.326;12.690;2022-10-31T11:35:20;31.70;55.80
16140;DHT22;8175;49.326;12.690;2022-10-31T11:37:48;31.00;57.50
16140;DHT22;8175;49.326;12.690;2022-10-31T11:40:24;31.20;55.80
16140;DHT22;8175;49.326;12.690;2022-10-31T11:42:51;32.40;53.80
16140;DHT22;8175;49.326;12.690;2022-10-31T11:45:39;33.20;52.80
16140;DHT22;8175;49.326;12.690;2022-10-31T11:48:16;33.50;52.10
16140;DHT22;8175;49.326;12.690;2022-10-31T11:50:48;32.30;54.40
16140;DHT22;8175;49.326;12.690;2022-10-31T11:53:34;32.50;54.10
16140;DHT22;8175;49.326;12.690;2022-10-31T11:56:13;32.10;52.10
16140;DHT22;8175;49.326;12.690;2022-10-31T11:58:39;32.90;51.70
16140;DHT22;8175;49.326;12.690;2022-10-31T12:01:05;32.70;52.20
16140;DHT22;8175;49.326;12.690;2022-10-31T12:04:00;31.60;53.50
16140;DHT22;8175;49.326;12.690;2022-10-31T12:06:35;31.40;56.10
16140;DHT22;8175;49.326;12.690;2022-10-31T12:09:02;31.20;56.20
16140;DHT22;8175;49.326;12.690;2022-10-31T12:20:22;31.60;55.50
16140;DHT22;8175;49.326;12.690;2022-10-31T12:25:43;32.10;48.90
16140;DHT22;8175;49.326;12.690;2022-10-31T12:28:17;32.70;47.60
16140;DHT22;8175;49.326;12.690;2022-10-31T12:31:01;32.10;49.50
16140;DHT22;8175;49.326;12.690;2022-10-31T12:33:44;31.60;51.00
16140;DHT22;8175;49.326;12.690;2022-10-31T12:36:40;31.80;48.50
16140;DHT22;8175;49.326;12.690;2022-10-31T12:47:44;30.20;49.20
16140;DHT22;8175;49.326;12.690;2022-10-31T12:50:35;28.60;57.00
16140;DHT22;8175;49.326;12.690;2022-10-31T12:58:31;28.70;56.50
16140;DHT22;8175;49.326;12.690;2022-10-31T13:01:30;28.30;58.90
16140;DHT22;8175;49.326;12.690;2022-10-31T13:04:12;28.00;56.30
16140;DHT22;8175;49.326;12.690;2022-10-31T13:06:53;27.70;58.40
16140;DHT22;8175;49.326;12.690;2022-10-31T13:09:30;25.20;58.20
16140;DHT22;8175;49.326;12.690;2022-10-31T13:12:02;25.30;69.30
16140;DHT22;8175;49.326;12.690;2022-10-31T13:14:42;25.50;68.10
16140;DHT22;8175;49.326;12.690;2022-10-31T13:19:55;25.30;63.70
16140;DHT22;8175;49.326;12.690;2022-10-31T13:22:29;24.90;59.70
16140;DHT22;8175;49.326;12.690;2022-10-31T13:27:58;25.00;67.70
16140;DHT22;8175;49.326;12.690;2022-10-31T13:30:27;24.80;68.50
16140;DHT22;8175;49.326;12.690;2022-10-31T13:33:04;24.70;71.30
16140;DHT22;8175;49.326;12.690;2022-10-31T13:46:34;24.40;73.70
16140;DHT22;8175;49.326;12.690;2022-10-31T13:49:00;24.50;74.00
16140;DHT22;8175;49.326;12.690;2022-10-31T13:51:28;25.00;73.90
16140;DHT22;8175;49.326;12.690;2022-10-31T13:56:26;24.10;74.20
16140;DHT22;8175;49.326;12.690;2022-10-31T14:01:36;24.10;73.10
16140;DHT22;8175;49.326;12.690;2022-10-31T14:04:06;23.80;68.10
16140;DHT22;8175;49.326;12.690;2022-10-31T14:09:29;23.10;67.20
16140;DHT22;8175;49.326;12.690;2022-10-31T14:11:57;23.10;76.10
16140;DHT22;8175;49.326;12.690;2022-10-31T14:14:42;22.60;76.70
16140;DHT22;8175;49.326;12.690;2022-10-31T14:17:20;22.30;77.90
16140;DHT22;8175;49.326;12.690;2022-10-31T14:20:00;22.00;79.00
16140;DHT22;8175;49.326;12.690;2022-10-31T14:22:30;21.90;82.10
16140;DHT22;8175;49.326;12.690;2022-10-31T14:24:56;21.60;83.80
16140;DHT22;8175;49.326;12.690;2022-10-31T14:29:54;21.10;85.40
16140;DHT22;8175;49.326;12.690;2022-10-31T14:32:23;20.90;90.00
16140;DHT22;8175;49.326;12.690;2022-10-31T14:34:55;20.70;91.30
16140;DHT22;8175;49.326;12.690;2022-10-31T14:44:22;19.90;91.30
16140;DHT22;8175;49.326;12.690;2022-10-31T14:52:06;19.00;97.30
16140;DHT22;8175;49.326;12.690;2022-10-31T14:54:35;18.80;96.90
16140;DHT22;8175;49.326;12.690;2022-10-31T14:57:13;18.70;96.10
16140;DHT22;8175;49.326;12.690;2022-10-31T14:59:43;18.70;94.60
16140;DHT22;8175;49.326;12.690;2022-10-31T15:02:23;18.60;94.40
16140;DHT22;8175;49.326;12.690;2022-10-31T15:04:51;18.50;92.30
16140;DHT22;8175;49.326;12.690;2022-10-31T15:07:21;18.40;94.90
16140;DHT22;8175;49.326;12.690;2022-10-31T15:10:21;18.30;96.30
16140;DHT22;8175;49.326;12.690;2022-10-31T15:12:47;18.20;95.00
16140;DHT22;8175;49.326;12.690;2022-10-31T15:15:18;18.10;96.20
16140;DHT22;8175;49.326;12.690;2022-10-31T15:17:47;17.90;95.60
16140;DHT22;8175;49.326;12.690;2022-10-31T15:20:22;17.80;94.90
16140;DHT22;8175;49.326;12.690;2022-10-31T15:22:49;17.60;98.50
16140;DHT22;8175;49.326;12.690;2022-10-31T15:25:20;17.40;97.70
16140;DHT22;8175;49.326;12.690;2022-10-31T15:27:51;17.30;98.50
16140;DHT22;8175;49.326;12.690;2022-10-31T15:30:21;17.10;99.90
16140;DHT22;8175;49.326;12.690;2022-10-31T15:32:47;17.00;99.90
16140;DHT22;8175;49.326;12.690;2022-10-31T15:35:30;16.90;99.90
16140;DHT22;8175;49.326;12.690;2022-10-31T15:37:57;16.70;99.90
16140;DHT22;8175;49.326;12.690;2022-10-31T15:40:25;16.50;99.90
16140;DHT22;8175;49.326;12.690;2022-10-31T15:43:00;16.40;99.90
16140;DHT22;8175;49.326;12.690;2022-10-31T15:45:28;16.30;99.90
16140;DHT22;8175;49.326;12.690;2022-10-31T15:48:03;16.10;99.90
16140;DHT22;8175;49.326;12.690;2022-10-31T15:50:39;15.80;99.90
16140;DHT22;8175;49.326;12.690;2022-10-31T15:53:14;15.70;99.90
16140;DHT22;8175;49.326;12.690;2022-10-31T15:55:56;15.60;99.90
16140;DHT22;8175;49.326;12.690;2022-10-31T15:58:24;15.60;99.90
16140;DHT22;8175;49.326;12.690;2022-10-31T16:01:04;15.50;99.90
16140;DHT22;8175;49.326;12.690;2022-10-31T16:03:31;15.40;99.90
16140;DHT22;8175;49.326;12.690;2022-10-31T16:06:03;15.30;99.90
16140;DHT22;8175;49.326;12.690;2022-10-31T16:13:30;15.00;99.90
16140;DHT22;8175;49.326;12.690;2022-10-31T16:16:14;15.00;99.90
16140;DHT22;8175;49.326;12.690;2022-10-31T16:18:41;14.70;99.90
16140;DHT22;8175;49.326;12.690;2022-10-31T16:21:08;14.70;99.90
16140;DHT22;8175;49.326;12.690;2022-10-31T16:23:36;14.60;99.90
16140;DHT22;8175;49.326;12.690;2022-10-31T16:26:07;14.60;99.90
16140;DHT22;8175;49.326;12.690;2022-10-31T16:28:33;14.60;99.90
16140;DHT22;8175;49.326;12.690;2022-10-31T16:30:59;14.70;99.90
16140;DHT22;8175;49.326;12.690;2022-10-31T16:33:32;14.70;99.90
16140;DHT22;8175;49.326;12.690;2022-10-31T16:38:54;14.50;99.90
16140;DHT22;8175;49.326;12.690;2022-10-31T16:41:19;14.40;99.90
16140;DHT22;8175;49.326;12.690;2022-10-31T16:43:45;14.30;99.90
16140;DHT22;8175;49.326;12.690;2022-10-31T16:46:21;14.40;99.90
16140;DHT22;8175;49.326;12.690;2022-10-31T16:48:48;14.50;99.90
16140;DHT22;8175;49.326;12.690;2022-10-31T16:51:13;14.50;99.90
16140;DHT22;8175;49.326;12.690;2022-10-31T16:53:39;14.60;99.90
16140;DHT22;8175;49.326;12.690;2022-10-31T16:56:05;14.50;99.90
16140;DHT22;8175;49.326;12.690;2022-10-31T16:58:37;14.40;99.90
16140;DHT22;8175;49.326;12.690;2022-10-31T17:01:05;14.30;99.90
16140;DHT22;8175;49.326;12.690;2022-10-31T17:03:32;14.30;99.90
16140;DHT22;8175;49.326;12.690;2022-10-31T17:05:57;14.10;99.90
16140;DHT22;8175;49.326;12.690;2022-10-31T17:08:23;14.10;99.90
16140;DHT22;8175;49.326;12.690;2022-10-31T17:10:56;14.00;99.90
16140;DHT22;8175;49.326;12.690;2022-10-31T17:13:24;14.00;99.90
16140;DHT22;8175;49.326;12.690;2022-10-31T17:15:53;14.00;99.90
16140;DHT22;8175;49.326;12.690;2022-10-31T17:18:19;13.90;99.90
16140;DHT22;8175;49.326;12.690;2022-10-31T17:20:45;13.80;99.90
16140;DHT22;8175;49.326;12.690;2022-10-31T17:23:12;13.80;99.90
16140;DHT22;8175;49.326;12.690;2022-10-31T17:25:39;13.80;99.90
16140;DHT22;8175;49.326;12.690;2022-10-31T17:28:05;13.80;99.90
16140;DHT22;8175;49.326;12.690;2022-10-31T17:30:32;13.70;99.90
16140;DHT22;8175;49.326;12.690;2022-10-31T17:32:59;13.70;99.90
16140;DHT22;8175;49.326;12.690;2022-10-31T17:35:25;13.60;99.90
16140;DHT22;8175;49.326;12.690;2022-10-31T17:37:51;13.50;99.90
16140;DHT22;8175;49.326;12.690;2022-10-31T17:40:20;13.40;99.90
16140;DHT22;8175;49.326;12.690;2022-10-31T17:42:54;13.40;99.90
16140;DHT22;8175;49.326;12.690;2022-10-31T17:45:22;13.30;99.90
16140;DHT22;8175;49.326;12.690;2022-10-31T17:47:49;13.30;99.90
16140;DHT22;8175;49.326;12.690;2022-10-31T17:50:20;13.20;99.90
16140;DHT22;8175;49.326;12.690;2022-10-31T17:52:46;13.20;99.90
16140;DHT22;8175;49.326;12.690;2022-10-31T17:55:13;13.10;99.90
16140;DHT22;8175;49.326;12.690;2022-10-31T17:57:39;13.10;99.90
16140;DHT22;8175;49.326;12.690;2022-10-31T18:00:08;13.00;99.90
16140;DHT22;8175;49.326;12.690;2022-10-31T18:02:35;12.90;99.90
16140;DHT22;8175;49.326;12.690;2022-10-31T18:05:02;12.80;99.90
16140;DHT22;8175;49.326;12.690;2022-10-31T18:07:28;12.70;99.90
16140;DHT22;8175;49.326;12.690;2022-10-31T18:09:53;12.60;99.90
16140;DHT22;8175;49.326;12.690;2022-10-31T18:12:19;12.60;99.90
16140;DHT22;8175;49.326;12.690;2022-10-31T18:14:45;12.50;99.90
16140;DHT22;8175;49.326;12.690;2022-10-31T18:17:10;12.50;99.90
16140;DHT22;8175;49.326;12.690;2022-10-31T18:19:36;12.50;99.90
16140;DHT22;8175;49.326;12.690;2022-10-31T18:22:02;12.50;99.90